createdAt,value
2022-12-15T00:02:13.554Z,18.00
2022-12-15T00:04:58.868Z,33.25
2022-12-15T00:10:29.692Z,34.33
2022-12-15T00:16:00.255Z,30.45
2022-12-15T00:18:45.819Z,35.28
2022-12-15T00:21:31.033Z,33.35
2022-12-15T00:24:16.442Z,34.60
2022-12-15T00:27:01.681Z,31.77
2022-12-15T00:29:47.045Z,33.35
2022-12-15T00:35:17.707Z,33.65
2022-12-15T00:38:03.131Z,29.95
2022-12-15T00:40:29.945Z,35.50
2022-12-15T00:42:56.642Z,32.20
2022-12-15T00:45:43.272Z,32.92
2022-12-15T00:48:10.010Z,33.45
2022-12-15T00:50:52.171Z,32.25
2022-12-15T00:53:39.073Z,29.40
2022-12-15T00:56:24.622Z,38.17
2022-12-15T00:59:10.901Z,33.15
2022-12-15T01:01:56.824Z,30.40
2022-12-15T01:04:42.635Z,29.15
2022-12-15T01:07:28.305Z,32.40
2022-12-15T01:10:13.721Z,29.42
2022-12-15T01:12:58.987Z,39.95
2022-12-15T01:15:44.209Z,35.75
2022-12-15T01:21:01.360Z,34.47
2022-12-15T01:23:28.490Z,36.50
2022-12-15T01:25:55.810Z,35.78
2022-12-15T01:28:23.600Z,38.72
2022-12-15T01:30:51.226Z,36.88
2022-12-15T01:33:18.747Z,34.33
2022-12-15T01:35:46.451Z,31.95
2022-12-15T01:38:13.085Z,37.80
2022-12-15T01:40:45.625Z,35.05
2022-12-15T01:43:16.707Z,33.95
2022-12-15T01:45:46.954Z,28.88
2022-12-15T01:48:20.425Z,34.42
2022-12-15T01:50:58.346Z,34.97
2022-12-15T01:53:26.861Z,33.90
2022-12-15T01:55:54.295Z,37.78
2022-12-15T01:58:22.006Z,33.20
2022-12-15T02:00:49.035Z,38.17
2022-12-15T02:03:16.242Z,33.47
2022-12-15T02:05:43.089Z,38.15
2022-12-15T02:08:10.802Z,38.10
2022-12-15T02:11:05.453Z,31.85
2022-12-15T02:13:59.223Z,33.67
2022-12-15T02:16:44.332Z,33.25
2022-12-15T02:19:20.793Z,35.28
2022-12-15T02:22:26.020Z,33.15
2022-12-15T02:25:10.267Z,36.97
2022-12-15T02:27:40.093Z,34.55
2022-12-15T02:30:19.005Z,36.33
2022-12-15T02:35:26.036Z,34.28
2022-12-15T02:37:52.838Z,31.85
2022-12-15T02:40:19.616Z,34.30
2022-12-15T02:42:50.104Z,36.60
2022-12-15T02:45:23.110Z,35.92
2022-12-15T02:48:08.360Z,32.25
2022-12-15T02:51:07.357Z,29.63
2022-12-15T02:53:52.749Z,36.58
2022-12-15T02:59:41.863Z,32.00
2022-12-15T03:02:10.847Z,36.33
2022-12-15T03:04:37.796Z,35.35
2022-12-15T03:07:08.315Z,34.63
2022-12-15T03:09:35.095Z,38.97
2022-12-15T03:12:02.038Z,38.30
2022-12-15T03:14:28.791Z,35.65
2022-12-15T03:16:55.813Z,38.22
2022-12-15T03:19:23.107Z,37.28
2022-12-15T03:21:49.833Z,37.75
2022-12-15T03:24:16.526Z,34.17
2022-12-15T03:26:43.802Z,34.85
2022-12-15T03:29:10.507Z,35.53
2022-12-15T03:31:37.274Z,39.78
2022-12-15T03:34:04.021Z,40.10
2022-12-15T03:36:30.745Z,43.83
2022-12-15T03:38:57.391Z,36.05
2022-12-15T03:41:24.032Z,37.67
2022-12-15T03:43:50.740Z,38.80
2022-12-15T03:46:17.546Z,40.13
2022-12-15T03:48:44.326Z,36.92
2022-12-15T03:51:11.097Z,42.17
2022-12-15T03:53:37.860Z,32.05
2022-12-15T03:56:04.770Z,39.17
2022-12-15T03:58:31.592Z,38.47
2022-12-15T04:00:58.368Z,37.90
2022-12-15T04:03:25.283Z,35.20
2022-12-15T04:05:52.005Z,37.38
2022-12-15T04:08:18.842Z,25.08
2022-12-15T04:10:45.556Z,35.50
2022-12-15T04:13:12.598Z,40.17
2022-12-15T04:15:40.406Z,36.15
2022-12-15T04:18:10.109Z,39.55
2022-12-15T04:20:38.285Z,38.25
2022-12-15T04:23:07.975Z,36.90
2022-12-15T04:25:55.053Z,40.95
2022-12-15T04:28:40.769Z,32.50
2022-12-15T04:31:30.557Z,36.15
2022-12-15T04:34:23.465Z,38.60
2022-12-15T04:37:11.222Z,31.90
2022-12-15T04:40:00.923Z,40.25
2022-12-15T04:42:48.272Z,40.67
2022-12-15T04:45:35.627Z,37.58
2022-12-15T04:48:21.049Z,44.28
2022-12-15T04:51:06.412Z,33.00
2022-12-15T04:56:37.177Z,35.35
2022-12-15T04:59:22.808Z,33.95
2022-12-15T05:02:09.016Z,37.67
2022-12-15T05:04:54.339Z,35.25
2022-12-15T05:10:25.966Z,30.70
2022-12-15T05:13:11.326Z,30.95
2022-12-15T05:15:56.659Z,35.35
2022-12-15T05:18:41.827Z,30.77
2022-12-15T05:21:27.433Z,33.92
2022-12-15T05:24:12.830Z,35.55
2022-12-15T05:26:58.469Z,40.60
2022-12-15T05:29:43.789Z,35.00
2022-12-15T05:34:38.065Z,30.75
2022-12-15T05:37:07.268Z,38.40
2022-12-15T05:39:34.628Z,35.67
2022-12-15T05:42:01.342Z,34.83
2022-12-15T05:44:28.869Z,38.17
2022-12-15T05:46:55.650Z,38.95
2022-12-15T05:49:23.320Z,37.17
2022-12-15T05:51:50.359Z,35.78
2022-12-15T05:54:18.969Z,29.70
2022-12-15T05:56:46.727Z,39.15
2022-12-15T05:59:17.832Z,35.28
2022-12-15T06:01:44.963Z,33.90
2022-12-15T06:04:15.066Z,27.75
2022-12-15T06:06:42.407Z,34.58
2022-12-15T06:09:09.830Z,36.33
2022-12-15T06:11:37.449Z,38.50
2022-12-15T06:14:04.848Z,34.70
2022-12-15T06:16:31.986Z,41.08
2022-12-15T06:19:01.359Z,33.72
2022-12-15T06:21:31.693Z,40.88
2022-12-15T06:23:58.933Z,37.30
2022-12-15T06:26:31.682Z,37.40
2022-12-15T06:29:02.614Z,35.20
2022-12-15T06:31:31.819Z,35.42
2022-12-15T06:34:02.099Z,34.50
2022-12-15T06:36:31.032Z,35.80
2022-12-15T06:39:02.571Z,32.42
2022-12-15T06:41:30.721Z,36.13
2022-12-15T06:43:57.979Z,35.15
2022-12-15T06:46:25.940Z,34.38
2022-12-15T06:48:53.183Z,33.45
2022-12-15T06:51:20.462Z,35.78
2022-12-15T06:53:53.921Z,34.80
2022-12-15T06:56:32.201Z,33.25
2022-12-15T06:59:01.645Z,32.75
2022-12-15T07:01:29.225Z,33.85
2022-12-15T07:03:57.014Z,33.30
2022-12-15T07:06:24.019Z,36.65
2022-12-15T07:08:53.076Z,35.70
2022-12-15T07:11:21.681Z,35.70
2022-12-15T07:13:52.907Z,34.10
2022-12-15T07:16:21.588Z,29.52
2022-12-15T07:18:48.812Z,37.03
2022-12-15T07:21:15.495Z,32.70
2022-12-15T07:23:58.507Z,36.38
2022-12-15T07:26:26.332Z,32.90
2022-12-15T07:28:54.397Z,32.97
2022-12-15T07:31:22.964Z,32.78
2022-12-15T07:33:52.092Z,31.27
2022-12-15T07:36:19.079Z,31.58
2022-12-15T07:38:50.381Z,34.47
2022-12-15T07:41:19.410Z,29.85
2022-12-15T07:43:47.623Z,35.28
2022-12-15T07:46:14.776Z,32.72
2022-12-15T07:48:41.565Z,33.97
2022-12-15T07:51:15.157Z,33.30
2022-12-15T07:53:42.408Z,30.48
2022-12-15T07:56:10.431Z,34.10
2022-12-15T07:58:38.620Z,33.47
2022-12-15T08:01:07.980Z,38.47
2022-12-15T08:03:36.714Z,34.53
2022-12-15T08:06:15.053Z,32.10
2022-12-15T08:08:44.108Z,32.20
2022-12-15T08:11:13.465Z,30.30
2022-12-15T08:16:29.432Z,30.98
2022-12-15T08:18:59.611Z,34.42
2022-12-15T08:21:26.371Z,32.65
2022-12-15T08:23:53.425Z,38.88
2022-12-15T08:26:23.829Z,35.95
2022-12-15T08:28:54.017Z,30.65
2022-12-15T08:31:23.269Z,34.63
2022-12-15T08:33:51.083Z,34.10
2022-12-15T08:36:19.626Z,31.08
2022-12-15T08:38:47.606Z,35.33
2022-12-15T08:41:16.023Z,31.55
2022-12-15T08:43:48.053Z,34.83
2022-12-15T08:46:22.267Z,30.45
2022-12-15T08:48:49.793Z,33.58
2022-12-15T08:51:17.558Z,31.92
2022-12-15T08:53:45.127Z,28.02
2022-12-15T08:56:18.187Z,32.40
2022-12-15T09:01:20.749Z,33.58
2022-12-15T09:03:50.525Z,36.47
2022-12-15T09:06:23.669Z,30.90
2022-12-15T09:08:50.802Z,29.48
2022-12-15T09:11:18.091Z,30.35
2022-12-15T09:13:45.081Z,32.30
2022-12-15T09:16:15.321Z,30.63
2022-12-15T09:18:44.677Z,28.55
2022-12-15T09:21:13.033Z,32.65
2022-12-15T09:23:40.090Z,28.77
2022-12-15T09:26:10.796Z,26.45
2022-12-15T09:28:38.393Z,27.50
2022-12-15T09:31:10.951Z,28.70
2022-12-15T09:33:39.250Z,26.85
2022-12-15T09:36:06.721Z,25.88
2022-12-15T09:38:34.977Z,28.52
2022-12-15T09:41:13.901Z,26.05
2022-12-15T09:43:55.909Z,27.58
2022-12-15T09:46:59.954Z,28.80
2022-12-15T09:49:55.610Z,30.65
2022-12-15T09:52:27.323Z,28.30
2022-12-15T09:54:54.192Z,29.13
2022-12-15T09:57:38.262Z,27.15
2022-12-15T10:00:21.832Z,26.27
2022-12-15T10:03:04.962Z,25.23
2022-12-15T10:06:07.313Z,26.20
2022-12-15T10:08:50.732Z,29.00
2022-12-15T10:11:56.979Z,28.40
2022-12-15T10:14:23.699Z,29.17
2022-12-15T10:17:14.175Z,27.95
2022-12-15T10:19:56.307Z,25.45
2022-12-15T10:22:27.156Z,25.10
2022-12-15T10:28:03.238Z,24.38
2022-12-15T10:30:30.269Z,28.85
2022-12-15T10:33:15.886Z,25.83
2022-12-15T10:35:44.160Z,24.77
2022-12-15T10:38:30.126Z,27.30
2022-12-15T10:40:59.686Z,25.20
2022-12-15T10:43:28.501Z,28.42
2022-12-15T10:46:20.675Z,25.77
2022-12-15T10:49:07.274Z,30.05
2022-12-15T10:52:00.576Z,27.98
2022-12-15T10:54:34.929Z,27.35
2022-12-15T10:57:16.711Z,29.42
2022-12-15T10:59:43.861Z,24.73
2022-12-15T11:02:34.164Z,25.58
2022-12-15T11:05:19.689Z,26.58
2022-12-15T11:08:14.080Z,28.40
2022-12-15T11:11:14.705Z,25.92
2022-12-15T11:13:42.267Z,30.15
2022-12-15T11:16:20.002Z,27.45
2022-12-15T11:18:57.641Z,26.77
2022-12-15T11:21:47.603Z,27.50
2022-12-15T11:24:22.497Z,26.77
2022-12-15T11:26:56.104Z,25.73
2022-12-15T11:29:50.157Z,27.30
2022-12-15T11:32:26.850Z,25.83
2022-12-15T11:34:55.962Z,24.52
2022-12-15T11:37:41.954Z,29.55
2022-12-15T11:40:30.930Z,28.27
2022-12-15T11:43:11.020Z,25.92
2022-12-15T11:46:05.425Z,24.95
2022-12-15T11:48:43.089Z,27.10
2022-12-15T11:51:14.245Z,28.67
2022-12-15T11:53:56.158Z,27.77
2022-12-15T11:56:26.840Z,31.23
2022-12-15T11:59:15.210Z,27.50
2022-12-15T12:02:17.284Z,32.35
2022-12-15T12:05:21.073Z,29.00
2022-12-15T12:07:50.558Z,29.67
2022-12-15T12:10:42.740Z,29.08
2022-12-15T12:13:28.312Z,27.63
2022-12-15T12:16:02.012Z,34.35
2022-12-15T12:18:42.441Z,36.05
2022-12-15T12:21:13.331Z,33.03
2022-12-15T12:24:06.833Z,32.58
2022-12-15T12:26:51.601Z,34.17
2022-12-15T12:29:24.272Z,35.20
2022-12-15T12:31:56.478Z,37.10
2022-12-15T12:34:33.121Z,34.47
2022-12-15T12:37:27.669Z,32.22
2022-12-15T12:40:01.109Z,33.63
2022-12-15T12:42:40.182Z,34.83
2022-12-15T12:45:12.394Z,30.98
2022-12-15T12:47:43.073Z,30.77
2022-12-15T12:50:18.879Z,32.65
2022-12-15T12:52:52.629Z,32.00
2022-12-15T12:55:29.875Z,31.42
2022-12-15T12:57:56.880Z,31.55
2022-12-15T13:00:29.800Z,29.95
2022-12-15T13:03:11.023Z,31.05
2022-12-15T13:05:39.670Z,34.20
2022-12-15T13:08:06.369Z,30.90
2022-12-15T13:10:36.389Z,33.10
2022-12-15T13:13:31.946Z,33.42
2022-12-15T13:16:06.805Z,27.55
2022-12-15T13:19:02.198Z,36.38
2022-12-15T13:21:44.310Z,31.15
2022-12-15T13:24:35.312Z,29.95
2022-12-15T13:27:15.420Z,33.40
2022-12-15T13:30:01.793Z,29.65
2022-12-15T13:32:39.153Z,27.30
2022-12-15T13:35:15.031Z,30.00
2022-12-15T13:37:49.031Z,27.83
2022-12-15T13:40:35.215Z,29.90
2022-12-15T13:43:05.177Z,32.20
2022-12-15T13:45:37.990Z,27.90
2022-12-15T13:48:20.062Z,28.58
2022-12-15T13:51:06.538Z,31.95
2022-12-15T13:53:42.773Z,32.80
2022-12-15T13:56:12.438Z,27.83
2022-12-15T13:58:50.813Z,28.45
2022-12-15T14:01:32.959Z,32.45
2022-12-15T14:04:15.418Z,29.35
2022-12-15T14:07:02.759Z,28.17
2022-12-15T14:09:42.009Z,28.88
2022-12-15T14:12:13.456Z,32.90
2022-12-15T14:14:48.964Z,29.00
2022-12-15T14:17:17.996Z,28.75
2022-12-15T14:19:50.764Z,34.30
2022-12-15T14:22:29.773Z,31.40
2022-12-15T14:25:13.019Z,28.33
2022-12-15T14:27:40.137Z,32.75
2022-12-15T14:30:29.669Z,31.95
2022-12-15T14:32:56.553Z,35.38
2022-12-15T14:35:28.926Z,34.53
2022-12-15T14:40:28.864Z,28.45
2022-12-15T14:42:56.656Z,34.67
2022-12-15T14:45:30.978Z,33.33
2022-12-15T14:48:39.985Z,31.20
2022-12-15T14:50:54.199Z,33.58
2022-12-15T14:53:31.590Z,34.53
2022-12-15T14:56:00.693Z,33.30
2022-12-15T14:58:35.210Z,33.78
2022-12-15T15:01:03.843Z,30.75
2022-12-15T15:03:11.192Z,25.20
2022-12-15T15:03:39.267Z,29.83
2022-12-15T15:06:15.891Z,34.22
2022-12-15T15:08:53.103Z,33.30
2022-12-15T15:11:29.661Z,35.13
2022-12-15T15:14:00.202Z,29.98
2022-12-15T15:16:27.567Z,31.35
2022-12-15T15:18:56.960Z,33.38
2022-12-15T15:21:28.279Z,35.58
2022-12-15T15:24:04.168Z,31.92
2022-12-15T15:26:31.565Z,31.23
2022-12-15T15:28:58.736Z,33.58
2022-12-15T15:31:25.584Z,33.20
2022-12-15T15:33:52.944Z,34.22
2022-12-15T15:36:21.834Z,32.80
2022-12-15T15:38:48.686Z,34.67
2022-12-15T15:41:23.377Z,31.45
2022-12-15T15:43:50.086Z,33.67
2022-12-15T15:46:21.349Z,34.38
2022-12-15T15:48:51.378Z,35.45
2022-12-15T15:51:19.089Z,31.02
2022-12-15T15:53:46.673Z,30.27
2022-12-15T15:56:16.295Z,36.90
2022-12-15T15:58:43.869Z,32.53
2022-12-15T16:01:13.368Z,33.72
2022-12-15T16:03:41.133Z,31.60
2022-12-15T16:06:17.721Z,33.50
2022-12-15T16:08:46.507Z,32.03
2022-12-15T16:11:13.342Z,32.88
2022-12-15T16:13:40.539Z,33.28
2022-12-15T16:16:16.369Z,34.97
2022-12-15T16:18:43.275Z,32.83
2022-12-15T16:21:16.998Z,32.83
2022-12-15T16:23:46.860Z,28.27
2022-12-15T16:26:27.540Z,33.70
2022-12-15T16:28:54.651Z,30.40
2022-12-15T16:31:42.067Z,32.78
2022-12-15T16:34:09.515Z,31.73
2022-12-15T16:36:36.540Z,31.15
2022-12-15T16:39:04.608Z,30.30
2022-12-15T16:41:33.437Z,33.47
2022-12-15T16:44:01.836Z,30.50
2022-12-15T16:46:29.176Z,34.92
2022-12-15T16:48:55.903Z,33.45
2022-12-15T16:51:44.767Z,32.80
2022-12-15T16:54:19.284Z,35.95
2022-12-15T16:56:45.970Z,35.25
2022-12-15T16:59:37.109Z,35.38
2022-12-15T17:05:07.077Z,29.70
2022-12-15T17:07:34.074Z,29.80
2022-12-15T17:10:04.379Z,32.33
2022-12-15T17:12:35.146Z,31.00
2022-12-15T17:15:03.943Z,32.58
2022-12-15T17:17:31.538Z,32.42
2022-12-15T17:20:28.100Z,32.03
2022-12-15T17:22:57.253Z,31.10
2022-12-15T17:25:53.665Z,31.98
2022-12-15T17:28:27.165Z,29.70
2022-12-15T17:30:54.010Z,36.20
2022-12-15T17:33:25.778Z,32.42
2022-12-15T17:35:55.070Z,32.97
2022-12-15T17:38:23.282Z,34.30
2022-12-15T17:40:51.884Z,32.92
2022-12-15T17:43:24.029Z,31.13
2022-12-15T17:45:51.291Z,31.77
2022-12-15T17:48:18.441Z,33.35
2022-12-15T17:50:53.419Z,38.97
2022-12-15T17:53:24.147Z,35.63
2022-12-15T17:55:52.794Z,35.22
2022-12-15T17:58:25.685Z,30.88
2022-12-15T18:00:55.628Z,32.55
2022-12-15T18:03:23.924Z,34.85
2022-12-15T18:05:52.582Z,29.30
2022-12-15T18:08:27.162Z,33.78
2022-12-15T18:10:56.759Z,32.85
2022-12-15T18:13:26.838Z,32.72
2022-12-15T18:15:55.728Z,33.95
2022-12-15T18:18:23.769Z,34.72
2022-12-15T18:20:54.032Z,33.17
2022-12-15T18:23:24.967Z,35.80
2022-12-15T18:25:53.996Z,32.88
2022-12-15T18:28:25.497Z,35.50
2022-12-15T18:31:11.669Z,33.75
2022-12-15T18:33:38.794Z,33.35
2022-12-15T18:36:05.992Z,33.72
2022-12-15T18:38:32.786Z,38.60
2022-12-15T18:41:01.035Z,36.13
2022-12-15T18:43:33.647Z,36.10
2022-12-15T18:46:00.885Z,36.55
2022-12-15T18:48:30.383Z,40.45
2022-12-15T18:50:58.868Z,35.40
2022-12-15T18:53:35.236Z,37.67
2022-12-15T18:56:06.347Z,38.45
2022-12-15T18:58:39.557Z,40.10
2022-12-15T19:01:07.601Z,36.08
2022-12-15T19:03:36.440Z,40.33
2022-12-15T19:06:25.928Z,38.67
2022-12-15T19:08:53.182Z,35.97
2022-12-15T19:11:30.868Z,37.53
2022-12-15T19:14:00.831Z,42.35
2022-12-15T19:16:48.281Z,42.70
2022-12-15T19:19:34.149Z,37.40
2022-12-15T19:22:19.438Z,42.92
2022-12-15T19:24:55.451Z,43.47
2022-12-15T19:27:26.297Z,36.22
2022-12-15T19:29:54.577Z,40.85
2022-12-15T19:32:23.085Z,41.03
2022-12-15T19:34:49.984Z,44.72
2022-12-15T19:37:31.075Z,41.15
2022-12-15T19:40:00.685Z,39.45
2022-12-15T19:42:33.495Z,41.05
2022-12-15T19:45:04.116Z,40.20
2022-12-15T19:47:30.762Z,40.00
2022-12-15T19:49:57.489Z,38.40
2022-12-15T19:52:27.015Z,39.72
2022-12-15T19:54:53.755Z,37.10
2022-12-15T19:57:21.139Z,41.85
2022-12-15T19:59:47.827Z,39.88
2022-12-15T20:02:20.343Z,36.55
2022-12-15T20:04:48.008Z,35.75
2022-12-15T20:07:21.260Z,38.97
2022-12-15T20:09:48.079Z,33.97
2022-12-15T20:12:19.678Z,41.58
2022-12-15T20:14:47.209Z,37.97
2022-12-15T20:17:14.034Z,38.60
2022-12-15T20:19:41.212Z,36.38
2022-12-15T20:22:14.793Z,37.95
2022-12-15T20:24:42.922Z,38.92
2022-12-15T20:27:19.614Z,36.42
2022-12-15T20:29:46.639Z,43.75
2022-12-15T20:32:19.468Z,37.10
2022-12-15T20:34:46.821Z,35.92
2022-12-15T20:37:20.610Z,40.17
2022-12-15T20:39:49.452Z,36.03
2022-12-15T20:42:21.877Z,37.03
2022-12-15T20:44:49.166Z,38.92
2022-12-15T20:47:25.741Z,36.33
2022-12-15T20:49:54.791Z,35.65
2022-12-15T20:52:25.227Z,39.40
2022-12-15T20:54:53.182Z,38.90
2022-12-15T20:57:20.320Z,37.42
2022-12-15T20:59:47.404Z,37.05
2022-12-15T21:02:17.335Z,34.63
2022-12-15T21:04:44.244Z,36.58
2022-12-15T21:07:12.043Z,36.85
2022-12-15T21:09:39.280Z,38.58
2022-12-15T21:12:27.555Z,36.35
2022-12-15T21:14:55.146Z,34.00
2022-12-15T21:17:25.602Z,33.65
2022-12-15T21:19:52.762Z,37.92
2022-12-15T21:22:27.404Z,41.00
2022-12-15T21:24:56.785Z,38.53
2022-12-15T21:27:23.614Z,39.83
2022-12-15T21:29:52.879Z,37.80
2022-12-15T21:32:20.637Z,40.22
2022-12-15T21:34:47.380Z,36.20
2022-12-15T21:37:24.295Z,38.42
2022-12-15T21:39:51.688Z,37.92
2022-12-15T21:42:21.138Z,39.92
2022-12-15T21:44:48.000Z,39.22
2022-12-15T21:47:52.087Z,38.80
2022-12-15T21:50:19.762Z,33.95
2022-12-15T21:52:47.568Z,37.65
2022-12-15T21:55:22.995Z,37.90
2022-12-15T21:57:49.913Z,36.88
2022-12-15T22:00:19.489Z,35.90
2022-12-15T22:02:48.078Z,35.33
2022-12-15T22:05:18.767Z,34.28
2022-12-15T22:07:46.163Z,39.60
2022-12-15T22:10:13.591Z,40.10
2022-12-15T22:12:42.285Z,36.28
2022-12-15T22:15:17.868Z,36.13
2022-12-15T22:17:44.845Z,37.33
2022-12-15T22:20:21.128Z,38.35
2022-12-15T22:22:48.493Z,37.50
2022-12-15T22:25:25.909Z,36.85
2022-12-15T22:27:52.774Z,34.58
2022-12-15T22:30:26.708Z,35.95
2022-12-15T22:32:53.910Z,30.98
2022-12-15T22:35:23.737Z,38.05
2022-12-15T22:37:53.498Z,33.63
2022-12-15T22:40:22.319Z,36.15
2022-12-15T22:42:55.900Z,36.65
2022-12-15T22:45:26.169Z,40.70
2022-12-15T22:47:55.027Z,36.78
2022-12-15T22:50:26.488Z,37.80
2022-12-15T22:52:53.243Z,41.30
2022-12-15T22:55:22.953Z,36.13
2022-12-15T22:58:01.271Z,37.08
2022-12-15T23:00:28.430Z,41.25
2022-12-15T23:05:28.413Z,38.15
2022-12-15T23:07:55.091Z,38.45
2022-12-15T23:10:40.225Z,37.08
2022-12-15T23:13:07.037Z,37.30
2022-12-15T23:15:52.907Z,35.22
2022-12-15T23:18:21.765Z,36.67
2022-12-15T23:20:48.519Z,36.25
2022-12-15T23:23:15.448Z,36.28
2022-12-15T23:25:42.237Z,35.22
2022-12-15T23:28:09.158Z,33.75
2022-12-15T23:30:36.050Z,38.38
2022-12-15T23:33:02.886Z,37.72
2022-12-15T23:35:29.701Z,38.45
2022-12-15T23:37:57.941Z,37.55
2022-12-15T23:40:24.710Z,40.00
2022-12-15T23:42:52.181Z,36.60
2022-12-15T23:45:19.661Z,41.15
2022-12-15T23:47:46.411Z,39.65
2022-12-15T23:50:13.163Z,36.28
2022-12-15T23:52:39.908Z,37.80
2022-12-15T23:55:10.277Z,39.83
2022-12-15T23:57:38.430Z,40.15
